createdAt,value
2019-06-26T00:01:49.044Z,27.70
2019-06-26T00:04:16.481Z,27.70
2019-06-26T00:06:44.109Z,27.60
2019-06-26T00:09:11.571Z,27.70
2019-06-26T00:11:38.916Z,27.70
2019-06-26T00:14:06.422Z,27.60
2019-06-26T00:16:33.926Z,27.60
2019-06-26T00:19:01.418Z,27.60
2019-06-26T00:21:29.264Z,27.50
2019-06-26T00:23:56.614Z,27.40
2019-06-26T00:26:24.162Z,27.50
2019-06-26T00:28:51.556Z,27.50
2019-06-26T00:31:19.002Z,27.40
2019-06-26T00:33:46.537Z,27.40
2019-06-26T00:36:14.089Z,27.40
2019-06-26T00:38:41.517Z,27.30
2019-06-26T00:41:08.904Z,27.30
2019-06-26T00:43:42.417Z,27.30
2019-06-26T00:46:05.572Z,27.20
2019-06-26T00:48:32.904Z,27.20
2019-06-26T00:51:00.335Z,27.20
2019-06-26T00:53:27.858Z,27.20
2019-06-26T00:55:55.384Z,27.20
2019-06-26T00:58:23.002Z,27.10
2019-06-26T01:00:51.049Z,27.10
2019-06-26T01:03:18.637Z,27.10
2019-06-26T01:05:46.174Z,27.00
2019-06-26T01:08:13.704Z,27.00
2019-06-26T01:10:41.562Z,27.00
2019-06-26T01:13:09.078Z,27.00
2019-06-26T01:15:36.777Z,26.90
2019-06-26T01:18:04.442Z,27.00
2019-06-26T01:20:32.003Z,26.90
2019-06-26T01:22:59.501Z,27.00
2019-06-26T01:25:27.081Z,26.90
2019-06-26T01:27:54.495Z,26.90
2019-06-26T01:30:22.073Z,26.90
2019-06-26T01:32:49.561Z,26.80
2019-06-26T01:35:16.864Z,26.90
2019-06-26T01:37:44.323Z,26.90
2019-06-26T01:40:11.931Z,26.90
2019-06-26T01:42:39.303Z,26.90
2019-06-26T01:45:07.128Z,26.90
2019-06-26T01:47:34.597Z,24.40
2019-06-26T01:50:02.008Z,26.90
2019-06-26T01:52:29.351Z,26.70
2019-06-26T01:54:56.782Z,26.80
2019-06-26T01:57:24.265Z,26.80
2019-06-26T01:59:51.724Z,26.90
2019-06-26T02:02:19.213Z,26.80
2019-06-26T02:04:46.699Z,26.80
2019-06-26T02:07:14.085Z,26.80
2019-06-26T02:09:41.733Z,26.80
2019-06-26T02:12:09.178Z,26.80
2019-06-26T02:14:36.730Z,26.80
2019-06-26T02:17:04.191Z,26.80
2019-06-26T02:19:31.571Z,26.70
2019-06-26T02:21:59.020Z,26.70
2019-06-26T02:24:26.393Z,26.70
2019-06-26T02:26:54.325Z,26.70
2019-06-26T02:29:21.984Z,26.60
2019-06-26T02:31:50.161Z,26.60
2019-06-26T02:34:17.583Z,26.60
2019-06-26T02:36:44.969Z,26.60
2019-06-26T02:39:12.323Z,26.50
2019-06-26T02:41:40.032Z,26.60
2019-06-26T02:44:07.648Z,26.60
2019-06-26T02:46:35.941Z,26.50
2019-06-26T02:49:03.429Z,26.60
2019-06-26T02:51:30.942Z,26.50
2019-06-26T02:53:58.410Z,26.40
2019-06-26T02:56:25.870Z,26.40
2019-06-26T02:58:53.644Z,26.40
2019-06-26T03:01:21.396Z,26.40
2019-06-26T03:03:49.314Z,26.30
2019-06-26T03:06:16.757Z,26.40
2019-06-26T03:08:44.822Z,26.30
2019-06-26T03:11:12.297Z,26.30
2019-06-26T03:13:40.617Z,26.20
2019-06-26T03:16:08.199Z,26.30
2019-06-26T03:18:35.654Z,26.20
2019-06-26T03:21:03.113Z,26.20
2019-06-26T03:23:30.623Z,26.20
2019-06-26T03:25:58.303Z,26.20
2019-06-26T03:28:26.015Z,26.10
2019-06-26T03:30:53.797Z,26.00
2019-06-26T03:33:21.479Z,26.00
2019-06-26T03:35:49.391Z,26.00
2019-06-26T03:38:17.030Z,26.00
2019-06-26T03:40:46.398Z,26.00
2019-06-26T03:43:13.996Z,26.00
2019-06-26T03:45:41.923Z,26.10
2019-06-26T03:48:09.746Z,25.90
2019-06-26T03:50:37.620Z,25.80
2019-06-26T03:53:05.167Z,25.90
2019-06-26T03:55:32.838Z,25.80
2019-06-26T03:58:00.362Z,25.80
2019-06-26T04:00:38.413Z,25.70
2019-06-26T04:03:05.790Z,26.00
2019-06-26T04:05:33.707Z,25.90
2019-06-26T04:08:01.273Z,25.80
2019-06-26T04:10:28.704Z,25.80
2019-06-26T04:12:56.211Z,25.80
2019-06-26T04:15:23.697Z,25.80
2019-06-26T04:17:51.146Z,25.80
2019-06-26T04:20:18.582Z,25.80
2019-06-26T04:22:47.645Z,25.80
2019-06-26T04:25:15.592Z,25.70
2019-06-26T04:27:43.277Z,25.70
2019-06-26T04:30:11.025Z,25.70
2019-06-26T04:32:38.330Z,25.80
2019-06-26T04:35:06.194Z,22.10
2019-06-26T04:37:33.781Z,25.80
2019-06-26T04:40:01.163Z,25.80
2019-06-26T04:42:28.781Z,25.80
2019-06-26T04:44:56.296Z,22.90
2019-06-26T04:47:23.645Z,25.80
2019-06-26T04:49:51.133Z,25.80
2019-06-26T04:52:18.624Z,25.80
2019-06-26T04:54:46.052Z,25.90
2019-06-26T04:57:13.512Z,25.90
2019-06-26T04:59:42.297Z,25.90
2019-06-26T05:02:09.803Z,25.90
2019-06-26T05:04:37.262Z,26.00
2019-06-26T05:07:05.096Z,25.90
2019-06-26T05:09:32.846Z,26.00
2019-06-26T05:12:00.203Z,26.00
2019-06-26T05:14:27.618Z,26.00
2019-06-26T05:16:55.168Z,26.00
2019-06-26T05:19:22.583Z,26.10
2019-06-26T05:21:49.926Z,26.00
2019-06-26T05:24:17.512Z,26.10
2019-06-26T05:26:44.996Z,26.10
2019-06-26T05:29:12.448Z,26.10
2019-06-26T05:31:40.042Z,26.20
2019-06-26T05:34:10.675Z,26.20
2019-06-26T05:36:36.795Z,26.20
2019-06-26T05:39:05.878Z,26.30
2019-06-26T05:41:33.375Z,26.30
2019-06-26T05:44:00.874Z,26.30
2019-06-26T05:46:31.410Z,26.40
2019-06-26T05:48:57.618Z,26.40
2019-06-26T05:51:25.029Z,26.40
2019-06-26T05:57:27.418Z,26.50
2019-06-26T05:59:54.899Z,26.60
2019-06-26T06:02:25.249Z,26.60
2019-06-26T06:04:52.629Z,26.70
2019-06-26T06:07:20.004Z,26.70
2019-06-26T06:09:47.452Z,26.70
2019-06-26T06:12:14.840Z,26.80
2019-06-26T06:14:42.219Z,26.80
2019-06-26T06:17:09.670Z,26.90
2019-06-26T06:19:37.084Z,26.90
2019-06-26T06:22:04.433Z,27.00
2019-06-26T06:24:31.966Z,27.00
2019-06-26T06:26:59.492Z,27.00
2019-06-26T06:29:29.933Z,27.00
2019-06-26T06:31:56.312Z,27.10
2019-06-26T06:34:25.685Z,27.20
2019-06-26T06:36:53.067Z,27.20
2019-06-26T06:39:20.506Z,27.20
2019-06-26T06:41:48.040Z,27.30
2019-06-26T06:44:15.380Z,27.40
2019-06-26T06:46:42.889Z,27.40
2019-06-26T06:49:10.325Z,27.50
2019-06-26T06:51:37.813Z,27.60
2019-06-26T06:54:09.510Z,27.60
2019-06-26T06:56:37.017Z,27.70
2019-06-26T06:59:04.419Z,27.80
2019-06-26T07:01:31.863Z,27.80
2019-06-26T07:03:59.436Z,27.90
2019-06-26T07:06:26.927Z,27.90
2019-06-26T07:08:54.416Z,28.00
2019-06-26T07:11:22.190Z,28.10
2019-06-26T07:13:49.708Z,28.20
2019-06-26T07:16:17.198Z,28.20
2019-06-26T07:18:44.555Z,28.30
2019-06-26T07:21:12.087Z,28.40
2019-06-26T07:23:39.741Z,28.30
2019-06-26T07:26:07.268Z,28.60
2019-06-26T07:28:34.671Z,28.70
2019-06-26T07:31:02.095Z,28.80
2019-06-26T07:33:29.544Z,28.90
2019-06-26T07:35:57.110Z,29.00
2019-06-26T07:38:24.652Z,29.20
2019-06-26T07:40:52.174Z,29.30
2019-06-26T07:43:19.774Z,29.40
2019-06-26T07:45:47.190Z,29.50
2019-06-26T07:48:14.545Z,29.60
2019-06-26T07:50:46.236Z,29.70
2019-06-26T07:53:17.093Z,29.90
2019-06-26T07:55:44.560Z,30.00
2019-06-26T07:58:12.041Z,30.90
2019-06-26T08:00:39.621Z,30.30
2019-06-26T08:03:07.172Z,30.40
2019-06-26T08:05:34.702Z,30.60
2019-06-26T08:08:02.088Z,30.70
2019-06-26T08:10:29.509Z,30.80
2019-06-26T08:12:57.731Z,30.50
2019-06-26T08:15:25.604Z,31.10
2019-06-26T08:18:00.574Z,31.20
2019-06-26T08:20:22.562Z,31.40
2019-06-26T08:22:50.120Z,31.50
2019-06-26T08:25:17.601Z,31.60
2019-06-26T08:27:45.012Z,31.80
2019-06-26T08:30:12.597Z,31.80
2019-06-26T08:32:40.259Z,32.00
2019-06-26T08:35:08.999Z,32.10
2019-06-26T08:37:36.356Z,32.30
2019-06-26T08:40:04.231Z,32.40
2019-06-26T08:42:31.805Z,32.60
2019-06-26T08:44:59.218Z,32.70
